createdAt,value
2022-10-06T00:02:13.847Z,99.90
2022-10-06T00:04:48.547Z,99.90
2022-10-06T00:07:22.753Z,99.90
2022-10-06T00:09:56.957Z,99.90
2022-10-06T00:12:28.655Z,99.90
2022-10-06T00:15:00.442Z,99.90
2022-10-06T00:17:32.291Z,99.90
2022-10-06T00:20:04.492Z,99.90
2022-10-06T00:22:37.298Z,99.90
2022-10-06T00:25:14.414Z,99.90
2022-10-06T00:27:47.617Z,99.90
2022-10-06T00:30:20.786Z,99.90
2022-10-06T00:32:52.934Z,99.90
2022-10-06T00:35:25.707Z,99.90
2022-10-06T00:37:57.418Z,99.90
2022-10-06T00:40:29.531Z,99.90
2022-10-06T00:43:02.735Z,99.90
2022-10-06T00:45:40.098Z,99.90
2022-10-06T00:48:25.184Z,99.90
2022-10-06T00:50:57.969Z,99.90
2022-10-06T00:53:32.803Z,99.90
2022-10-06T00:56:04.569Z,99.90
2022-10-06T00:58:36.287Z,99.90
2022-10-06T01:01:08.756Z,99.90
2022-10-06T01:03:44.050Z,99.90
2022-10-06T01:06:15.867Z,99.90
2022-10-06T01:08:50.721Z,99.90
2022-10-06T01:11:22.501Z,99.90
2022-10-06T01:13:55.718Z,99.90
2022-10-06T01:16:29.610Z,99.90
2022-10-06T01:19:03.460Z,99.90
2022-10-06T01:21:37.305Z,99.90
2022-10-06T01:24:09.767Z,99.90
2022-10-06T01:26:45.555Z,99.90
2022-10-06T01:29:17.484Z,99.90
2022-10-06T01:31:49.290Z,99.90
2022-10-06T01:34:20.998Z,99.90
2022-10-06T01:36:52.773Z,99.90
2022-10-06T01:39:26.859Z,99.90
2022-10-06T01:41:58.582Z,99.90
2022-10-06T01:44:30.278Z,99.90
2022-10-06T01:47:07.225Z,99.90
2022-10-06T01:49:39.024Z,99.90
2022-10-06T01:52:10.797Z,99.90
2022-10-06T01:54:44.711Z,99.90
2022-10-06T01:57:16.410Z,99.90
2022-10-06T01:59:54.562Z,99.90
2022-10-06T02:02:30.092Z,99.90
2022-10-06T02:05:01.816Z,99.90
2022-10-06T02:07:35.551Z,99.90
2022-10-06T02:10:07.697Z,99.90
2022-10-06T02:12:39.414Z,99.90
2022-10-06T02:15:13.698Z,99.90
2022-10-06T02:17:45.446Z,99.90
2022-10-06T02:20:17.251Z,99.90
2022-10-06T02:22:49.152Z,99.90
2022-10-06T02:25:20.912Z,99.90
2022-10-06T02:27:54.178Z,99.90
2022-10-06T02:30:25.876Z,99.90
2022-10-06T02:32:57.652Z,99.90
2022-10-06T02:35:31.777Z,99.90
2022-10-06T02:38:03.583Z,99.90
2022-10-06T02:40:35.678Z,99.90
2022-10-06T02:43:07.531Z,99.90
2022-10-06T02:45:39.266Z,99.90
2022-10-06T02:48:11.640Z,99.90
2022-10-06T02:50:43.364Z,99.90
2022-10-06T02:53:17.495Z,99.90
2022-10-06T02:55:49.220Z,99.90
2022-10-06T02:58:20.921Z,99.90
2022-10-06T03:00:52.605Z,99.90
2022-10-06T03:03:24.346Z,99.90
2022-10-06T03:06:00.390Z,99.90
2022-10-06T03:08:32.896Z,99.90
2022-10-06T03:11:04.994Z,99.90
2022-10-06T03:13:36.761Z,99.90
2022-10-06T03:16:28.770Z,99.90
2022-10-06T03:19:01.088Z,99.90
2022-10-06T03:21:34.164Z,99.90
2022-10-06T03:24:08.694Z,99.90
2022-10-06T03:26:43.791Z,99.90
2022-10-06T03:29:16.443Z,99.90
2022-10-06T03:31:48.242Z,99.90
2022-10-06T03:34:20.018Z,99.90
2022-10-06T03:36:51.760Z,99.90
2022-10-06T03:39:23.491Z,99.90
2022-10-06T03:41:55.189Z,99.90
2022-10-06T03:44:26.946Z,99.90
2022-10-06T03:46:58.704Z,99.90
2022-10-06T03:49:33.046Z,99.90
2022-10-06T03:52:04.765Z,99.90
2022-10-06T03:54:36.516Z,99.90
2022-10-06T03:57:10.592Z,99.90
2022-10-06T03:59:42.396Z,99.90
2022-10-06T04:02:14.188Z,99.90
2022-10-06T04:04:48.427Z,99.90
2022-10-06T04:07:20.122Z,99.90
2022-10-06T04:09:54.354Z,99.90
2022-10-06T04:12:28.309Z,99.90
2022-10-06T04:15:00.294Z,99.90
2022-10-06T04:17:32.141Z,99.90
2022-10-06T04:20:03.983Z,99.90
2022-10-06T04:22:38.191Z,99.90
2022-10-06T04:25:10.020Z,99.90
2022-10-06T04:27:41.714Z,99.90
2022-10-06T04:30:13.475Z,99.90
2022-10-06T04:32:46.073Z,99.90
2022-10-06T04:35:18.014Z,99.90
2022-10-06T04:37:52.983Z,99.90
2022-10-06T04:40:24.755Z,99.90
2022-10-06T04:42:57.505Z,99.90
2022-10-06T04:45:29.508Z,99.90
2022-10-06T04:48:01.480Z,99.90
2022-10-06T04:50:33.399Z,99.90
2022-10-06T04:53:05.227Z,99.90
2022-10-06T04:55:36.992Z,99.90
2022-10-06T04:58:08.765Z,99.90
2022-10-06T05:00:41.255Z,99.90
2022-10-06T05:03:15.477Z,99.90
2022-10-06T05:05:47.306Z,99.90
2022-10-06T05:08:19.015Z,99.90
2022-10-06T05:10:50.755Z,99.90
2022-10-06T05:13:22.466Z,99.90
2022-10-06T05:15:58.077Z,99.90
2022-10-06T05:18:32.854Z,99.90
2022-10-06T05:21:14.532Z,99.90
2022-10-06T05:23:46.441Z,99.90
2022-10-06T05:26:21.982Z,99.90
2022-10-06T05:28:56.633Z,99.90
2022-10-06T05:31:29.789Z,99.90
2022-10-06T05:34:01.658Z,99.90
2022-10-06T05:36:34.107Z,99.90
2022-10-06T05:39:05.984Z,99.90
2022-10-06T05:41:38.236Z,99.90
2022-10-06T05:44:10.522Z,99.90
2022-10-06T05:46:42.447Z,99.90
2022-10-06T05:49:14.246Z,99.90
2022-10-06T05:51:46.007Z,99.90
2022-10-06T05:54:17.754Z,99.90
2022-10-06T05:56:49.526Z,99.90
2022-10-06T05:59:21.275Z,99.90
2022-10-06T06:01:53.431Z,99.90
2022-10-06T06:04:25.211Z,99.90
2022-10-06T06:06:56.989Z,99.90
2022-10-06T06:09:28.992Z,99.90
2022-10-06T06:12:00.813Z,99.90
2022-10-06T06:14:51.340Z,99.90
2022-10-06T06:17:23.056Z,99.90
2022-10-06T06:19:54.753Z,99.90
2022-10-06T06:22:26.467Z,99.90
2022-10-06T06:24:58.583Z,99.90
2022-10-06T06:27:30.353Z,99.90
2022-10-06T06:30:02.125Z,99.90
2022-10-06T06:32:33.863Z,99.90
2022-10-06T06:35:05.832Z,99.90
2022-10-06T06:37:37.563Z,99.90
2022-10-06T06:40:09.324Z,99.90
2022-10-06T06:42:41.088Z,99.90
2022-10-06T06:45:14.186Z,99.90
2022-10-06T06:47:48.042Z,99.90
2022-10-06T06:50:19.748Z,99.90
2022-10-06T06:52:51.578Z,99.90
2022-10-06T06:55:25.703Z,99.90
2022-10-06T06:57:59.784Z,99.90
2022-10-06T07:00:35.905Z,99.90
2022-10-06T07:03:12.038Z,99.90
2022-10-06T07:05:46.368Z,99.90
2022-10-06T07:08:20.715Z,99.90
2022-10-06T07:10:55.365Z,99.90
2022-10-06T07:13:29.504Z,99.90
2022-10-06T07:16:19.748Z,99.90
2022-10-06T07:19:09.992Z,99.90
2022-10-06T07:22:02.715Z,99.90
2022-10-06T07:24:53.104Z,99.90
2022-10-06T07:27:28.214Z,99.90
2022-10-06T07:29:59.968Z,99.90
2022-10-06T07:32:34.148Z,99.90
2022-10-06T07:35:06.629Z,99.90
2022-10-06T07:37:38.337Z,99.90
2022-10-06T07:40:10.561Z,99.90
2022-10-06T07:42:48.514Z,99.90
2022-10-06T07:45:41.529Z,99.90
2022-10-06T07:48:15.312Z,99.90
2022-10-06T07:50:49.181Z,99.90
2022-10-06T07:53:21.019Z,99.90
2022-10-06T07:55:54.870Z,99.90
2022-10-06T07:58:26.558Z,99.90
2022-10-06T08:01:04.717Z,99.90
2022-10-06T08:03:37.266Z,99.90
2022-10-06T08:06:14.199Z,99.90
2022-10-06T08:08:51.741Z,99.90
2022-10-06T08:11:27.143Z,99.90
2022-10-06T08:13:59.269Z,98.80
2022-10-06T08:16:31.098Z,99.90
2022-10-06T08:19:02.859Z,92.10
2022-10-06T08:21:34.621Z,74.90
2022-10-06T08:24:06.379Z,78.50
2022-10-06T08:26:38.901Z,71.20
2022-10-06T08:29:11.635Z,41.90
2022-10-06T08:31:45.744Z,39.90
2022-10-06T08:34:18.387Z,47.00
2022-10-06T08:37:08.621Z,56.30
2022-10-06T08:39:44.938Z,52.60
2022-10-06T08:42:22.588Z,47.00
2022-10-06T08:44:58.227Z,45.70
2022-10-06T08:47:33.870Z,60.20
2022-10-06T08:50:09.825Z,60.90
2022-10-06T08:53:01.966Z,51.40
2022-10-06T08:55:33.630Z,34.80
2022-10-06T08:58:14.609Z,16.50
2022-10-06T09:00:46.366Z,11.70
2022-10-06T09:03:23.218Z,16.00
2022-10-06T09:06:01.058Z,3.30
2022-10-06T09:08:45.037Z,6.00
2022-10-06T09:11:23.021Z,2.10
2022-10-06T09:14:03.488Z,1.00
2022-10-06T09:16:38.381Z,1.00
2022-10-06T09:19:12.575Z,1.00
2022-10-06T09:21:47.316Z,1.00
2022-10-06T09:24:27.767Z,1.00
2022-10-06T09:27:00.199Z,1.00
2022-10-06T09:29:32.042Z,1.00
2022-10-06T09:32:03.794Z,1.00
2022-10-06T09:34:37.666Z,1.00
2022-10-06T09:37:12.869Z,1.00
2022-10-06T09:39:46.159Z,1.00
2022-10-06T09:42:22.879Z,1.00
2022-10-06T09:45:00.921Z,1.00
2022-10-06T09:47:40.146Z,1.00
2022-10-06T09:50:20.152Z,1.00
2022-10-06T09:52:57.634Z,3.80
2022-10-06T09:55:31.406Z,1.00
2022-10-06T09:58:04.406Z,1.00
2022-10-06T10:00:39.136Z,1.00
2022-10-06T10:03:13.976Z,1.00
2022-10-06T10:05:54.952Z,1.00
2022-10-06T10:08:27.673Z,1.00
2022-10-06T10:11:28.277Z,1.00
2022-10-06T10:14:00.205Z,1.00
2022-10-06T10:16:34.960Z,1.00
2022-10-06T10:19:21.532Z,1.00
2022-10-06T10:21:56.497Z,1.00
2022-10-06T10:24:42.120Z,1.00
2022-10-06T10:27:31.848Z,1.00
2022-10-06T10:30:10.705Z,1.00
2022-10-06T10:32:49.813Z,1.00
2022-10-06T10:35:27.447Z,1.00
2022-10-06T10:38:15.726Z,1.00
2022-10-06T10:40:48.952Z,1.00
2022-10-06T10:43:23.663Z,1.00
2022-10-06T10:45:55.522Z,1.00
2022-10-06T10:48:33.382Z,1.00
2022-10-06T10:51:25.348Z,1.00
2022-10-06T10:54:00.526Z,1.00
2022-10-06T10:56:33.060Z,1.00
2022-10-06T10:59:14.124Z,1.00
2022-10-06T11:01:52.222Z,1.00
2022-10-06T11:04:26.382Z,1.00
2022-10-06T11:07:04.179Z,1.00
2022-10-06T11:09:48.082Z,1.00
2022-10-06T11:12:24.398Z,1.00
2022-10-06T11:14:59.856Z,1.00
2022-10-06T11:17:40.215Z,1.00
2022-10-06T11:20:19.312Z,1.00
2022-10-06T11:22:51.153Z,1.00
2022-10-06T11:25:36.787Z,1.00
2022-10-06T11:28:17.414Z,1.00
2022-10-06T11:30:58.562Z,1.00
2022-10-06T11:33:33.150Z,1.00
2022-10-06T11:36:08.765Z,1.00
2022-10-06T11:38:42.780Z,1.00
2022-10-06T11:41:23.893Z,1.00
2022-10-06T11:44:04.585Z,1.00
2022-10-06T11:46:52.586Z,1.00
2022-10-06T11:49:30.745Z,1.00
2022-10-06T11:52:11.627Z,1.00
2022-10-06T11:54:43.322Z,1.00
2022-10-06T11:57:30.245Z,1.00
2022-10-06T12:00:05.606Z,1.00
2022-10-06T12:02:41.265Z,1.00
2022-10-06T12:05:47.167Z,1.00
2022-10-06T12:08:09.059Z,1.00
2022-10-06T12:10:48.276Z,1.00
2022-10-06T12:14:44.588Z,1.00
2022-10-06T12:19:46.510Z,1.00
2022-10-06T12:22:18.253Z,1.00
2022-10-06T12:24:56.182Z,1.00
2022-10-06T12:27:46.999Z,1.00
2022-10-06T12:30:28.838Z,1.00
2022-10-06T12:33:05.772Z,1.00
2022-10-06T12:35:40.054Z,1.00
2022-10-06T12:38:30.262Z,1.00
2022-10-06T12:41:02.421Z,1.00
2022-10-06T12:43:35.411Z,1.00
2022-10-06T12:46:16.394Z,1.00
2022-10-06T12:49:07.086Z,1.00
2022-10-06T12:51:40.252Z,1.00
2022-10-06T12:54:25.354Z,1.00
2022-10-06T12:56:59.853Z,1.00
2022-10-06T12:59:32.552Z,1.00
2022-10-06T13:02:16.699Z,1.00
2022-10-06T13:04:59.786Z,1.00
2022-10-06T13:07:33.180Z,1.00
2022-10-06T13:10:17.520Z,1.00
2022-10-06T13:12:55.572Z,1.00
2022-10-06T13:15:40.239Z,1.00
2022-10-06T13:18:13.459Z,1.00
2022-10-06T13:20:58.062Z,1.00
2022-10-06T13:23:31.334Z,1.00
2022-10-06T13:26:03.055Z,1.00
2022-10-06T13:28:43.795Z,1.00
2022-10-06T13:31:28.851Z,1.00
2022-10-06T13:34:02.928Z,1.00
2022-10-06T13:36:37.201Z,1.00
2022-10-06T13:39:13.345Z,1.00
2022-10-06T13:41:50.195Z,1.00
2022-10-06T13:44:21.928Z,1.00
2022-10-06T13:46:58.358Z,1.00
2022-10-06T13:49:33.219Z,1.00
2022-10-06T13:52:10.073Z,1.00
2022-10-06T13:54:47.427Z,1.00
2022-10-06T13:57:54.747Z,1.00
2022-10-06T14:00:50.181Z,1.00
2022-10-06T14:03:26.702Z,1.00
2022-10-06T14:06:07.988Z,1.00
2022-10-06T14:08:41.950Z,1.00
2022-10-06T14:11:13.652Z,1.00
2022-10-06T14:13:45.419Z,1.00
2022-10-06T14:16:26.870Z,1.00
2022-10-06T14:19:00.297Z,1.00
2022-10-06T14:21:32.175Z,1.00
2022-10-06T14:24:09.225Z,1.00
2022-10-06T14:26:42.246Z,1.00
2022-10-06T14:29:16.409Z,1.00
2022-10-06T14:31:51.489Z,1.00
2022-10-06T14:34:23.274Z,1.00
2022-10-06T14:36:55.465Z,1.00
2022-10-06T14:39:29.933Z,1.00
2022-10-06T14:42:01.651Z,1.00
2022-10-06T14:44:33.410Z,1.00
2022-10-06T14:47:09.399Z,1.00
2022-10-06T14:49:41.306Z,1.00
2022-10-06T14:52:13.186Z,1.00
2022-10-06T14:54:47.304Z,1.00
2022-10-06T14:57:20.575Z,1.00
2022-10-06T14:59:52.366Z,1.00
2022-10-06T15:02:24.269Z,1.00
2022-10-06T15:04:56.073Z,1.00
2022-10-06T15:07:46.474Z,1.00
2022-10-06T15:10:18.255Z,1.00
2022-10-06T15:12:51.154Z,1.00
2022-10-06T15:15:23.358Z,1.00
2022-10-06T15:17:55.242Z,1.00
2022-10-06T15:20:27.993Z,1.00
2022-10-06T15:22:59.745Z,1.00
2022-10-06T15:25:52.809Z,1.00
2022-10-06T15:28:43.046Z,1.00
2022-10-06T15:31:21.868Z,1.00
2022-10-06T15:33:57.051Z,2.80
2022-10-06T15:36:29.899Z,9.60
2022-10-06T15:39:07.587Z,18.00
2022-10-06T15:41:40.483Z,24.90
2022-10-06T15:44:15.329Z,34.80
2022-10-06T15:46:51.606Z,42.60
2022-10-06T15:49:27.060Z,42.90
2022-10-06T15:52:03.044Z,22.80
2022-10-06T15:54:39.626Z,36.30
2022-10-06T15:57:17.864Z,26.50
2022-10-06T15:59:51.741Z,28.70
2022-10-06T16:02:23.718Z,24.00
2022-10-06T16:05:04.669Z,25.60
2022-10-06T16:07:36.486Z,25.90
2022-10-06T16:10:12.220Z,24.20
2022-10-06T16:12:44.013Z,26.50
2022-10-06T16:15:15.846Z,26.80
2022-10-06T16:17:47.637Z,29.50
2022-10-06T16:20:21.560Z,31.00
2022-10-06T16:22:53.604Z,36.90
2022-10-06T16:25:25.340Z,40.00
2022-10-06T16:27:57.126Z,43.90
2022-10-06T16:30:28.851Z,49.50
2022-10-06T16:33:00.593Z,54.00
2022-10-06T16:35:32.468Z,54.10
2022-10-06T16:38:04.209Z,59.80
2022-10-06T16:40:35.947Z,68.60
2022-10-06T16:43:09.837Z,66.70
2022-10-06T16:45:41.568Z,76.70
2022-10-06T16:48:13.502Z,80.40
2022-10-06T16:50:45.747Z,83.70
2022-10-06T16:53:18.638Z,78.70
2022-10-06T16:55:52.841Z,84.30
2022-10-06T16:58:24.597Z,90.30
2022-10-06T17:00:57.027Z,91.20
2022-10-06T17:03:28.854Z,95.30
2022-10-06T17:06:04.588Z,93.50
2022-10-06T17:08:37.515Z,95.40
2022-10-06T17:11:21.183Z,96.60
2022-10-06T17:13:57.977Z,98.50
2022-10-06T17:16:31.127Z,99.90
2022-10-06T17:19:03.490Z,99.90
2022-10-06T17:21:46.345Z,99.90
2022-10-06T17:24:20.562Z,99.90
2022-10-06T17:26:52.904Z,99.90
2022-10-06T17:29:25.089Z,99.90
2022-10-06T17:32:00.255Z,99.90
2022-10-06T17:34:34.385Z,99.90
2022-10-06T17:37:08.302Z,99.90
2022-10-06T17:39:46.821Z,99.90
2022-10-06T17:42:21.494Z,99.90
2022-10-06T17:44:53.489Z,99.90
2022-10-06T17:47:25.890Z,99.90
2022-10-06T17:50:00.931Z,99.90
2022-10-06T17:52:38.885Z,99.90
2022-10-06T17:55:10.956Z,99.90
2022-10-06T17:57:43.032Z,99.90
2022-10-06T18:00:18.314Z,99.90
2022-10-06T18:02:51.667Z,99.90
2022-10-06T18:05:24.145Z,99.90
2022-10-06T18:07:57.602Z,99.90
2022-10-06T18:10:47.979Z,99.90
2022-10-06T18:13:19.765Z,99.90
2022-10-06T18:15:51.534Z,99.90
2022-10-06T18:18:25.280Z,99.90
2022-10-06T18:21:04.196Z,99.90
2022-10-06T18:23:39.011Z,99.90
2022-10-06T18:26:12.352Z,99.90
2022-10-06T18:28:45.063Z,99.90
2022-10-06T18:31:20.486Z,99.90
2022-10-06T18:36:45.324Z,99.90
2022-10-06T18:39:17.198Z,99.90
2022-10-06T18:41:52.536Z,99.90
2022-10-06T18:44:47.563Z,99.90
2022-10-06T18:47:37.814Z,99.90
2022-10-06T18:50:09.616Z,99.90
2022-10-06T18:52:43.768Z,99.90
2022-10-06T18:55:17.217Z,99.90
2022-10-06T18:57:51.530Z,99.90
2022-10-06T19:00:27.776Z,99.90
2022-10-06T19:03:04.219Z,99.90
2022-10-06T19:05:35.965Z,99.90
2022-10-06T19:08:09.556Z,99.90
2022-10-06T19:11:01.333Z,99.90
2022-10-06T19:13:33.488Z,99.90
2022-10-06T19:16:07.711Z,99.90
2022-10-06T19:18:40.840Z,99.90
2022-10-06T19:21:13.671Z,99.90
2022-10-06T19:23:46.654Z,99.90
2022-10-06T19:26:22.960Z,99.90
2022-10-06T19:28:56.976Z,99.90
2022-10-06T19:31:33.204Z,99.90
2022-10-06T19:34:05.454Z,99.90
2022-10-06T19:36:38.445Z,99.90
2022-10-06T19:39:12.077Z,99.90
2022-10-06T19:42:02.517Z,99.90
2022-10-06T19:44:40.642Z,99.90
2022-10-06T19:47:15.003Z,99.90
2022-10-06T19:49:47.867Z,99.90
2022-10-06T19:52:20.155Z,99.90
2022-10-06T19:54:54.042Z,99.90
2022-10-06T19:57:29.448Z,99.90
2022-10-06T20:00:03.963Z,99.90
2022-10-06T20:02:39.927Z,99.90
2022-10-06T20:05:15.288Z,99.90
2022-10-06T20:07:50.609Z,99.90
2022-10-06T20:10:25.066Z,99.90
2022-10-06T20:12:58.723Z,99.90
2022-10-06T20:15:32.336Z,99.90
2022-10-06T20:18:04.504Z,99.90
2022-10-06T20:20:36.850Z,99.90
2022-10-06T20:23:08.623Z,99.90
2022-10-06T20:25:40.763Z,99.90
2022-10-06T20:28:13.368Z,99.90
2022-10-06T20:30:50.132Z,99.90
2022-10-06T20:33:21.987Z,99.90
2022-10-06T20:35:53.785Z,99.90
2022-10-06T20:38:45.487Z,99.90
2022-10-06T20:41:17.710Z,99.90
2022-10-06T20:43:54.034Z,99.90
2022-10-06T20:46:27.802Z,99.90
2022-10-06T20:49:04.064Z,99.90
2022-10-06T20:51:40.020Z,99.90
2022-10-06T20:54:11.931Z,99.90
2022-10-06T20:56:43.734Z,99.90
2022-10-06T20:59:16.019Z,99.90
2022-10-06T21:01:48.305Z,99.90
2022-10-06T21:04:20.555Z,99.90
2022-10-06T21:06:52.415Z,99.90
2022-10-06T21:09:28.671Z,99.90
2022-10-06T21:12:00.802Z,99.90
2022-10-06T21:14:36.342Z,99.90
2022-10-06T21:17:10.358Z,99.90
2022-10-06T21:19:42.113Z,99.90
2022-10-06T21:22:14.380Z,99.90
2022-10-06T21:24:46.182Z,99.90
2022-10-06T21:27:18.562Z,99.90
2022-10-06T21:29:52.929Z,99.90
2022-10-06T21:32:24.884Z,99.90
2022-10-06T21:35:01.559Z,99.90
2022-10-06T21:37:34.391Z,99.90
2022-10-06T21:40:06.243Z,99.90
2022-10-06T21:42:38.055Z,99.90
2022-10-06T21:45:09.999Z,99.90
2022-10-06T21:47:42.161Z,99.90
2022-10-06T21:50:16.507Z,99.90
2022-10-06T21:52:48.361Z,99.90
2022-10-06T21:55:20.121Z,99.90
2022-10-06T21:57:51.983Z,99.90
2022-10-06T22:00:24.050Z,99.90
2022-10-06T22:02:55.935Z,99.90
2022-10-06T22:05:30.027Z,99.90
2022-10-06T22:08:01.929Z,99.90
2022-10-06T22:10:33.667Z,99.90
2022-10-06T22:13:05.448Z,99.90
2022-10-06T22:15:37.270Z,99.90
2022-10-06T22:18:09.139Z,99.90
2022-10-06T22:20:40.906Z,99.90
2022-10-06T22:23:12.734Z,99.90
2022-10-06T22:25:44.491Z,99.90
2022-10-06T22:28:16.341Z,99.90
2022-10-06T22:30:48.166Z,99.90
2022-10-06T22:33:22.762Z,99.90
2022-10-06T22:35:54.499Z,99.90
2022-10-06T22:38:26.317Z,99.90
2022-10-06T22:41:07.035Z,99.90
2022-10-06T22:43:41.240Z,99.90
2022-10-06T22:46:15.421Z,99.90
2022-10-06T22:48:47.226Z,99.90
2022-10-06T22:51:19.034Z,99.90
2022-10-06T22:53:57.905Z,99.90
2022-10-06T22:56:31.743Z,99.90
2022-10-06T22:59:03.775Z,99.90
2022-10-06T23:01:35.495Z,99.90
2022-10-06T23:04:09.396Z,99.90
2022-10-06T23:06:41.267Z,99.90
2022-10-06T23:09:13.042Z,99.90
2022-10-06T23:11:44.767Z,99.90
2022-10-06T23:14:16.525Z,99.90
2022-10-06T23:16:50.836Z,99.90
2022-10-06T23:19:22.671Z,99.90
2022-10-06T23:21:56.847Z,99.90
2022-10-06T23:24:28.699Z,99.90
2022-10-06T23:27:04.413Z,99.90
2022-10-06T23:29:36.224Z,99.90
2022-10-06T23:32:08.080Z,99.90
2022-10-06T23:34:39.854Z,99.90
2022-10-06T23:37:11.681Z,99.90
2022-10-06T23:39:43.578Z,99.90
2022-10-06T23:42:15.319Z,99.90
2022-10-06T23:44:47.088Z,99.90
2022-10-06T23:47:18.940Z,99.90
2022-10-06T23:49:50.842Z,99.90
2022-10-06T23:52:24.932Z,99.90
2022-10-06T23:54:56.720Z,99.90
2022-10-06T23:57:28.461Z,99.90
